Time;durP1;ratioP1;P1;durP2;ratioP2;P2;SDS_P1;SDS_P2;PMS_P1;PMS_P2;Temp;Humidity;BMP_temperature;BMP_pressure;BME280_temperature;BME280_humidity;BME280_pressure;Samples;Min_cycle;Max_cycle;Signal;HPM_P1;HPM_P2
2021/12/13 00:01:47;;;;;;;16.63;14.93;;;;;;;;;;5112844;28;20379;-61
2021/12/13 00:04:18;;;;;;;15.82;14.23;;;;;;;;;;5113346;28;20047;-61
2021/12/13 00:06:45;;;;;;;16.25;14.55;;;;;;;;;;5112274;28;20092;-61
2021/12/13 00:09:13;;;;;;;16.25;14.57;;;;;;;;;;5113302;28;20069;-61
2021/12/13 00:11:41;;;;;;;16.13;14.50;;;;;;;;;;5113149;28;20100;-61
2021/12/13 00:14:09;;;;;;;16.33;14.50;;;;;;;;;;5112375;28;20063;-61
2021/12/13 00:16:37;;;;;;;16.70;14.95;;;;;;;;;;5113130;27;20077;-61
2021/12/13 00:19:05;;;;;;;15.82;14.18;;;;;;;;;;5112850;28;20044;-61
2021/12/13 00:21:36;;;;;;;15.90;14.30;;;;;;;;;;5111758;28;20048;-61
2021/12/13 00:24:04;;;;;;;17.08;15.02;;;;;;;;;;5112602;28;20043;-61
2021/12/13 00:26:33;;;;;;;16.42;14.65;;;;;;;;;;5112149;28;20683;-60
2021/12/13 00:29:00;;;;;;;16.52;14.65;;;;;;;;;;5112581;28;20120;-60
2021/12/13 00:31:35;;;;;;;17.40;14.90;;;;;;;;;;5112614;28;20047;-60
2021/12/13 00:34:06;;;;;;;16.80;15.00;;;;;;;;;;5111760;28;20048;-61
2021/12/13 00:36:36;;;;;;;15.82;14.00;;;;;;;;;;5112758;28;20171;-60
2021/12/13 00:39:06;;;;;;;17.10;14.57;;;;;;;;;;5112314;28;20482;-61
2021/12/13 00:41:34;;;;;;;17.40;14.88;;;;;;;;;;5111672;28;20043;-61
2021/12/13 00:44:03;;;;;;;15.48;13.93;;;;;;;;;;5112427;28;20104;-61
2021/12/13 00:46:29;;;;;;;15.90;14.27;;;;;;;;;;5112506;28;20440;-61
2021/12/13 00:48:57;;;;;;;16.85;14.30;;;;;;;;;;5111439;28;20096;-61
2021/12/13 00:51:26;;;;;;;16.33;13.63;;;;;;;;;;5112294;28;20056;-61
2021/12/13 00:53:56;;;;;;;17.42;15.00;;;;;;;;;;5112159;28;20055;-61
2021/12/13 00:56:41;;;;;;;15.57;13.90;;;;;;;;;;5111536;28;20486;-61
2021/12/13 00:59:07;;;;;;;18.80;14.02;;;;;;;;;;5112327;28;20047;-61
2021/12/13 01:01:34;;;;;;;15.80;13.98;;;;;;;;;;5111425;28;20055;-61
2021/12/13 01:04:03;;;;;;;17.02;13.48;;;;;;;;;;5112063;28;20051;-61
2021/12/13 01:06:48;;;;;;;17.55;14.88;;;;;;;;;;5112366;28;20100;-61
2021/12/13 01:09:38;;;;;;;15.30;13.70;;;;;;;;;;5111487;28;20047;-61
2021/12/13 01:12:07;;;;;;;16.27;14.13;;;;;;;;;;5111272;28;20108;-61
2021/12/13 01:14:53;;;;;;;16.42;14.35;;;;;;;;;;5112154;28;20094;-61
2021/12/13 01:17:27;;;;;;;14.60;12.85;;;;;;;;;;5111124;28;20047;-61
2021/12/13 01:20:00;;;;;;;13.80;12.40;;;;;;;;;;5111110;28;20047;-61
2021/12/13 01:22:46;;;;;;;14.27;12.77;;;;;;;;;;5111784;28;20100;-61
2021/12/13 01:25:20;;;;;;;15.57;13.93;;;;;;;;;;5112018;28;20043;-61
2021/12/13 01:27:50;;;;;;;14.55;13.05;;;;;;;;;;5111616;28;20040;-61
2021/12/13 01:30:18;;;;;;;14.38;12.98;;;;;;;;;;5110775;28;20486;-61
2021/12/13 01:32:46;;;;;;;15.68;13.38;;;;;;;;;;5110581;28;20100;-61
2021/12/13 01:35:13;;;;;;;15.15;13.57;;;;;;;;;;5111748;28;20452;-61
2021/12/13 01:37:39;;;;;;;13.30;11.90;;;;;;;;;;5111312;28;20044;-61
2021/12/13 01:40:09;;;;;;;14.05;12.60;;;;;;;;;;5111488;28;20047;-61
2021/12/13 01:42:36;;;;;;;13.15;11.77;;;;;;;;;;5111832;28;20055;-61
2021/12/13 01:45:06;;;;;;;13.00;11.60;;;;;;;;;;5110688;28;20094;-61
2021/12/13 01:47:36;;;;;;;14.15;11.80;;;;;;;;;;5111562;28;20048;-61
2021/12/13 01:50:04;;;;;;;13.02;11.63;;;;;;;;;;5111721;28;20049;-61
2021/12/13 01:52:32;;;;;;;15.27;11.98;;;;;;;;;;5111031;28;20040;-61
2021/12/13 01:55:02;;;;;;;13.23;11.50;;;;;;;;;;5111175;28;20052;-61
2021/12/13 01:57:40;;;;;;;13.88;11.10;;;;;;;;;;5111748;28;20043;-61
2021/12/13 02:00:17;;;;;;;12.52;11.25;;;;;;;;;;5110226;28;20066;-61
2021/12/13 02:02:45;;;;;;;12.20;10.73;;;;;;;;;;5111216;28;20056;-61
2021/12/13 02:05:12;;;;;;;12.77;11.35;;;;;;;;;;5110869;28;20047;-61
2021/12/13 02:07:40;;;;;;;12.43;11.23;;;;;;;;;;5111492;28;20104;-61
2021/12/13 02:10:08;;;;;;;10.85;9.80;;;;;;;;;;5111025;28;20505;-61
2021/12/13 02:12:36;;;;;;;12.20;10.93;;;;;;;;;;5110505;28;20725;-61
2021/12/13 02:17:53;;;;;;;12.20;11.10;;;;;;;;;;5111086;28;20556;-61
2021/12/13 02:20:20;;;;;;;11.15;10.15;;;;;;;;;;5110481;28;20048;-61
2021/12/13 02:22:48;;;;;;;10.57;9.48;;;;;;;;;;5110887;28;20051;-61
2021/12/13 02:25:20;;;;;;;10.43;9.43;;;;;;;;;;5111353;28;20488;-61
2021/12/13 02:27:49;;;;;;;11.00;10.00;;;;;;;;;;5110309;28;20048;-61
2021/12/13 02:30:18;;;;;;;9.95;8.95;;;;;;;;;;5111131;28;20096;-61
2021/12/13 02:32:46;;;;;;;10.00;9.00;;;;;;;;;;5110725;28;20105;-61
2021/12/13 02:35:14;;;;;;;10.13;9.18;;;;;;;;;;5110287;28;20051;-61
2021/12/13 02:37:41;;;;;;;10.98;9.68;;;;;;;;;;5111037;28;20040;-61
2021/12/13 02:40:10;;;;;;;9.95;8.95;;;;;;;;;;5110535;28;20054;-61
2021/12/13 02:42:36;;;;;;;10.00;9.10;;;;;;;;;;5110955;28;20531;-61
2021/12/13 02:45:13;;;;;;;9.95;8.95;;;;;;;;;;5112687;28;20052;-61
2021/12/13 02:47:40;;;;;;;9.63;8.73;;;;;;;;;;5114295;28;20044;-61
2021/12/13 02:50:08;;;;;;;10.38;9.38;;;;;;;;;;5114506;28;20044;-61
2021/12/13 02:52:34;;;;;;;10.68;9.48;;;;;;;;;;5114591;28;20498;-61
2021/12/13 02:55:03;;;;;;;10.15;9.00;;;;;;;;;;5113705;28;20051;-61
2021/12/13 02:57:33;;;;;;;9.60;8.65;;;;;;;;;;5114676;28;20073;-61
2021/12/13 03:00:01;;;;;;;9.43;8.48;;;;;;;;;;5114135;28;20104;-61
2021/12/13 03:02:29;;;;;;;10.27;9.27;;;;;;;;;;5113668;28;20109;-61
2021/12/13 03:04:56;;;;;;;12.23;10.00;;;;;;;;;;5114188;28;20058;-61
2021/12/13 03:07:24;;;;;;;9.45;8.45;;;;;;;;;;5114371;28;20039;-61
2021/12/13 03:09:53;;;;;;;10.85;8.90;;;;;;;;;;5113589;28;20096;-61
2021/12/13 03:12:20;;;;;;;12.02;9.20;;;;;;;;;;5114286;28;20444;-61
2021/12/13 03:14:49;;;;;;;10.45;9.43;;;;;;;;;;5114035;28;20105;-61
2021/12/13 03:17:17;;;;;;;10.40;9.25;;;;;;;;;;5113253;28;20452;-61
2021/12/13 03:19:48;;;;;;;11.45;9.75;;;;;;;;;;5113758;28;20043;-61
2021/12/13 03:22:38;;;;;;;12.48;11.27;;;;;;;;;;5113553;28;20047;-61
2021/12/13 03:25:08;;;;;;;12.35;10.60;;;;;;;;;;5113721;28;20498;-61
2021/12/13 03:27:42;;;;;;;10.75;9.75;;;;;;;;;;5113910;28;20043;-61
2021/12/13 03:30:11;;;;;;;11.00;9.77;;;;;;;;;;5113363;28;20047;-61
2021/12/13 03:32:39;;;;;;;11.40;10.20;;;;;;;;;;5114113;28;20044;-61
2021/12/13 03:35:08;;;;;;;10.77;9.77;;;;;;;;;;5113629;28;20112;-61
2021/12/13 03:37:34;;;;;;;11.43;10.23;;;;;;;;;;5113132;28;20047;-61
2021/12/13 03:40:06;;;;;;;11.88;10.77;;;;;;;;;;5113470;28;20100;-61
2021/12/13 03:42:35;;;;;;;11.68;10.57;;;;;;;;;;5114010;28;20040;-61
2021/12/13 03:45:03;;;;;;;11.43;10.32;;;;;;;;;;5112635;28;20490;-61
2021/12/13 03:47:34;;;;;;;12.15;10.85;;;;;;;;;;5113620;28;20463;-61
2021/12/13 03:50:02;;;;;;;12.13;10.93;;;;;;;;;;5113413;28;20039;-61
2021/12/13 03:52:30;;;;;;;12.02;10.75;;;;;;;;;;5112727;28;20044;-61
2021/12/13 03:54:57;;;;;;;12.00;10.68;;;;;;;;;;5113367;28;20047;-61
2021/12/13 03:57:24;;;;;;;13.63;10.93;;;;;;;;;;5111907;28;20047;-61
2021/12/13 03:59:51;;;;;;;11.50;10.40;;;;;;;;;;5113168;28;20048;-61
2021/12/13 04:02:21;;;;;;;13.77;11.70;;;;;;;;;;5113293;28;20394;-61
2021/12/13 04:04:51;;;;;;;12.57;11.27;;;;;;;;;;5112263;28;20047;-61
2021/12/13 04:07:19;;;;;;;12.23;10.98;;;;;;;;;;5113409;28;20055;-61
2021/12/13 04:09:46;;;;;;;12.43;10.93;;;;;;;;;;5112771;28;20505;-61
2021/12/13 04:12:15;;;;;;;13.25;11.85;;;;;;;;;;5112526;28;20047;-61
2021/12/13 04:14:48;;;;;;;13.98;12.57;;;;;;;;;;5113139;28;20134;-61
2021/12/13 04:17:34;;;;;;;12.80;11.50;;;;;;;;;;5113015;28;20054;-61
2021/12/13 04:20:04;;;;;;;12.75;11.48;;;;;;;;;;5111960;28;20553;-61
2021/12/13 04:22:32;;;;;;;13.65;11.35;;;;;;;;;;5113077;28;20092;-61
2021/12/13 04:24:59;;;;;;;13.02;11.77;;;;;;;;;;5112740;28;20047;-61
2021/12/13 04:27:26;;;;;;;13.20;11.90;;;;;;;;;;5112226;28;20043;-61
2021/12/13 04:29:55;;;;;;;12.98;11.68;;;;;;;;;;5112330;28;20048;-61
2021/12/13 04:32:27;;;;;;;13.23;11.82;;;;;;;;;;5112957;28;20043;-61
2021/12/13 04:34:55;;;;;;;12.23;11.02;;;;;;;;;;5111591;28;20073;-61
2021/12/13 04:37:24;;;;;;;13.00;11.70;;;;;;;;;;5112687;28;20039;-61
2021/12/13 04:39:52;;;;;;;12.60;11.30;;;;;;;;;;5111582;28;20051;-61
2021/12/13 04:42:19;;;;;;;13.30;11.93;;;;;;;;;;5112452;28;20048;-61
2021/12/13 04:44:50;;;;;;;13.05;11.65;;;;;;;;;;5112209;28;20051;-61
2021/12/13 04:47:17;;;;;;;14.50;11.68;;;;;;;;;;5111791;28;20039;-61
2021/12/13 04:49:47;;;;;;;13.43;12.02;;;;;;;;;;5112286;28;20043;-61
2021/12/13 04:52:15;;;;;;;13.70;12.30;;;;;;;;;;5112443;28;20044;-61
2021/12/13 04:54:45;;;;;;;12.45;11.25;;;;;;;;;;5111494;28;20047;-61
2021/12/13 04:57:12;;;;;;;14.35;12.85;;;;;;;;;;5112221;28;20112;-61
2021/12/13 04:59:38;;;;;;;13.00;11.70;;;;;;;;;;5112301;28;20100;-61
2021/12/13 05:02:07;;;;;;;12.85;11.55;;;;;;;;;;5111400;28;20103;-61
2021/12/13 05:04:33;;;;;;;12.45;11.27;;;;;;;;;;5112311;28;20047;-61
2021/12/13 05:07:01;;;;;;;12.90;11.60;;;;;;;;;;5111685;28;20058;-61
2021/12/13 05:09:28;;;;;;;13.18;11.88;;;;;;;;;;5111356;28;20555;-61
2021/12/13 05:11:57;;;;;;;13.13;11.88;;;;;;;;;;5111590;28;20105;-60
2021/12/13 05:14:29;;;;;;;12.80;11.10;;;;;;;;;;5112467;28;20051;-61
2021/12/13 05:16:58;;;;;;;13.52;12.23;;;;;;;;;;5111032;28;20043;-61
2021/12/13 05:19:26;;;;;;;12.82;11.63;;;;;;;;;;5111952;28;20043;-61
2021/12/13 05:21:54;;;;;;;12.48;11.18;;;;;;;;;;5110865;28;20387;-61
2021/12/13 05:24:21;;;;;;;12.52;11.32;;;;;;;;;;5111720;28;20047;-61
2021/12/13 05:26:52;;;;;;;13.50;12.20;;;;;;;;;;5111692;28;20047;-61
2021/12/13 05:29:24;;;;;;;12.82;11.55;;;;;;;;;;5111108;28;20052;-60
2021/12/13 05:31:51;;;;;;;13.93;12.50;;;;;;;;;;5111443;28;20096;-60
2021/12/13 05:34:18;;;;;;;13.40;12.10;;;;;;;;;;5111651;28;20040;-60
2021/12/13 05:36:53;;;;;;;13.30;12.00;;;;;;;;;;5110883;28;20051;-61
2021/12/13 05:39:19;;;;;;;14.23;12.73;;;;;;;;;;5112185;28;20047;-61
2021/12/13 05:41:50;;;;;;;12.13;10.52;;;;;;;;;;5111922;28;20044;-61
2021/12/13 05:44:22;;;;;;;14.15;12.75;;;;;;;;;;5111199;28;20047;-61
2021/12/13 05:46:50;;;;;;;13.02;11.70;;;;;;;;;;5111838;28;20048;-61
2021/12/13 05:49:18;;;;;;;12.80;11.50;;;;;;;;;;5111806;28;20047;-61
2021/12/13 05:51:46;;;;;;;13.02;11.73;;;;;;;;;;5110700;28;20117;-61
2021/12/13 05:54:15;;;;;;;13.77;12.10;;;;;;;;;;5111549;28;20047;-61
2021/12/13 05:56:43;;;;;;;13.27;11.88;;;;;;;;;;5111698;28;20108;-61
2021/12/13 05:59:11;;;;;;;14.18;12.68;;;;;;;;;;5110729;28;20448;-61
2021/12/13 06:01:41;;;;;;;13.13;11.82;;;;;;;;;;5111384;28;20501;-61
2021/12/13 06:04:16;;;;;;;14.10;11.95;;;;;;;;;;5111070;28;20044;-61
2021/12/13 06:06:46;;;;;;;13.68;12.27;;;;;;;;;;5111154;28;20043;-61
2021/12/13 06:09:32;;;;;;;14.18;12.68;;;;;;;;;;5111363;28;20052;-60
2021/12/13 06:12:03;;;;;;;13.57;12.13;;;;;;;;;;5110268;28;20100;-60
2021/12/13 06:14:29;;;;;;;14.32;12.73;;;;;;;;;;5110994;28;20039;-61
2021/12/13 06:17:03;;;;;;;14.73;13.13;;;;;;;;;;5111250;28;20085;-61
2021/12/13 06:19:32;;;;;;;13.63;11.85;;;;;;;;;;5111717;28;20051;-61
2021/12/13 06:22:06;;;;;;;14.18;12.63;;;;;;;;;;5115203;28;20040;-61
2021/12/13 06:24:37;;;;;;;14.00;12.48;;;;;;;;;;5115029;28;20101;-61
2021/12/13 06:27:06;;;;;;;13.98;12.57;;;;;;;;;;5114105;28;20448;-61
2021/12/13 06:29:54;;;;;;;14.93;13.13;;;;;;;;;;5115202;28;20078;-61
2021/12/13 06:32:22;;;;;;;13.95;12.55;;;;;;;;;;5093957;28;20056;-61
2021/12/13 06:34:50;;;;;;;14.73;12.68;;;;;;;;;;5094201;28;20081;-61
2021/12/13 06:37:22;;;;;;;14.80;13.07;;;;;;;;;;5094530;28;20478;-61
2021/12/13 06:39:49;;;;;;;14.73;12.60;;;;;;;;;;5093799;28;20089;-61
2021/12/13 06:42:15;;;;;;;14.23;12.70;;;;;;;;;;5094383;28;20491;-61
2021/12/13 06:44:42;;;;;;;15.88;12.77;;;;;;;;;;5094601;28;20555;-61
2021/12/13 06:47:10;;;;;;;14.65;12.98;;;;;;;;;;5093752;28;20094;-61
2021/12/13 06:49:37;;;;;;;15.30;13.35;;;;;;;;;;5094438;28;20048;-61
2021/12/13 06:52:08;;;;;;;15.73;14.10;;;;;;;;;;5094347;28;20044;-61
2021/12/13 06:54:37;;;;;;;16.73;13.27;;;;;;;;;;5093757;28;20055;-61
2021/12/13 06:57:09;;;;;;;17.10;14.35;;;;;;;;;;5094100;28;20051;-61
2021/12/13 06:59:37;;;;;;;14.50;12.93;;;;;;;;;;5108819;28;20043;-61
2021/12/13 07:02:09;;;;;;;15.48;13.57;;;;;;;;;;5113341;28;20040;-61
2021/12/13 07:04:40;;;;;;;14.77;13.13;;;;;;;;;;5115029;28;20093;-61
2021/12/13 07:07:13;;;;;;;16.65;13.95;;;;;;;;;;5114419;27;20044;-61
2021/12/13 07:09:40;;;;;;;15.73;13.68;;;;;;;;;;5113768;28;20051;-60
2021/12/13 07:12:13;;;;;;;14.82;13.18;;;;;;;;;;5114001;28;20044;-61
2021/12/13 07:14:39;;;;;;;16.50;13.90;;;;;;;;;;5113459;28;20350;-61
2021/12/13 07:17:11;;;;;;;15.75;13.60;;;;;;;;;;5114221;28;20040;-61
2021/12/13 07:19:40;;;;;;;17.25;14.00;;;;;;;;;;5114519;28;20062;-61
2021/12/13 07:22:07;;;;;;;17.38;13.65;;;;;;;;;;5113199;28;20051;-61
2021/12/13 07:24:40;;;;;;;15.68;14.00;;;;;;;;;;5113966;28;20478;-61
2021/12/13 07:27:08;;;;;;;16.27;13.57;;;;;;;;;;5113826;28;20047;-61
2021/12/13 07:29:40;;;;;;;16.05;13.60;;;;;;;;;;5113427;28;20518;-61
2021/12/13 07:32:09;;;;;;;16.45;14.10;;;;;;;;;;5113170;28;20039;-61
2021/12/13 07:34:47;;;;;;;15.70;13.55;;;;;;;;;;5113305;28;20043;-61
2021/12/13 07:37:13;;;;;;;15.68;13.80;;;;;;;;;;5113298;28;20081;-61
2021/12/13 07:39:41;;;;;;;16.42;14.25;;;;;;;;;;5113939;28;20069;-61
2021/12/13 07:42:09;;;;;;;16.02;14.07;;;;;;;;;;5113773;28;20044;-61
2021/12/13 07:44:38;;;;;;;16.65;13.48;;;;;;;;;;5113331;28;20048;-61
2021/12/13 07:47:07;;;;;;;17.13;14.30;;;;;;;;;;5113529;28;20138;-61
2021/12/13 07:49:34;;;;;;;17.02;14.05;;;;;;;;;;5113092;28;20093;-61
2021/12/13 07:52:02;;;;;;;17.73;14.43;;;;;;;;;;5113399;28;20128;-62
2021/12/13 07:54:29;;;;;;;15.23;13.32;;;;;;;;;;5113860;27;20043;-62
2021/12/13 07:56:58;;;;;;;16.77;13.90;;;;;;;;;;5112674;28;20096;-62
2021/12/13 07:59:26;;;;;;;16.27;14.25;;;;;;;;;;5113334;28;20043;-62
2021/12/13 08:01:54;;;;;;;14.95;13.32;;;;;;;;;;5113173;28;20060;-62
2021/12/13 08:04:22;;;;;;;17.58;14.07;;;;;;;;;;5112864;28;20046;-62
2021/12/13 08:06:50;;;;;;;16.63;13.73;;;;;;;;;;5113128;28;20082;-62
2021/12/13 08:09:19;;;;;;;18.20;14.27;;;;;;;;;;5113582;28;20039;-62
2021/12/13 08:11:47;;;;;;;15.45;12.93;;;;;;;;;;5112364;27;20089;-60
2021/12/13 08:14:15;;;;;;;17.38;14.65;;;;;;;;;;5113228;28;20482;-61
2021/12/13 08:16:43;;;;;;;17.65;14.05;;;;;;;;;;5112992;28;20563;-61
2021/12/13 08:19:13;;;;;;;16.80;13.55;;;;;;;;;;5112555;28;20101;-61
2021/12/13 08:21:41;;;;;;;16.67;14.02;;;;;;;;;;5113380;28;20043;-60
2021/12/13 08:24:16;;;;;;;19.10;14.52;;;;;;;;;;5090176;28;20047;-60
2021/12/13 08:26:43;;;;;;;15.77;11.27;;;;;;;;;;5091519;28;20048;-61
2021/12/13 08:29:10;;;;;;;17.05;12.95;;;;;;;;;;5092449;28;20495;-61
2021/12/13 08:31:39;;;;;;;17.17;13.73;;;;;;;;;;5107409;28;20387;-61
2021/12/13 08:34:06;;;;;;;27.42;14.45;;;;;;;;;;5112167;28;20575;-61
2021/12/13 08:36:34;;;;;;;20.45;14.02;;;;;;;;;;5112561;28;20073;-60
2021/12/13 08:39:04;;;;;;;17.88;12.75;;;;;;;;;;5111378;28;20051;-60
2021/12/13 08:41:33;;;;;;;18.95;13.23;;;;;;;;;;5112586;28;20051;-60
2021/12/13 08:44:01;;;;;;;17.60;14.07;;;;;;;;;;5112215;28;20048;-60
2021/12/13 08:46:33;;;;;;;20.70;13.63;;;;;;;;;;5111721;28;20482;-61
2021/12/13 08:49:01;;;;;;;16.90;14.15;;;;;;;;;;5112353;28;20047;-61
2021/12/13 08:51:29;;;;;;;17.98;13.63;;;;;;;;;;5111928;28;20109;-61
2021/12/13 08:54:02;;;;;;;18.95;12.90;;;;;;;;;;5110960;28;20093;-61
2021/12/13 08:56:30;;;;;;;18.35;12.82;;;;;;;;;;5112791;28;20054;-61
2021/12/13 08:58:59;;;;;;;18.65;13.35;;;;;;;;;;5111824;28;20043;-60
2021/12/13 09:01:26;;;;;;;16.63;12.30;;;;;;;;;;5111380;28;20047;-60
2021/12/13 09:03:53;;;;;;;17.50;13.57;;;;;;;;;;5111974;28;20109;-60
2021/12/13 09:06:31;;;;;;;16.00;13.00;;;;;;;;;;5112292;28;20040;-61
2021/12/13 09:09:00;;;;;;;17.90;13.63;;;;;;;;;;5111063;28;20131;-61
2021/12/13 09:11:30;;;;;;;15.90;12.63;;;;;;;;;;5111965;27;20043;-61
2021/12/13 09:13:58;;;;;;;15.35;12.73;;;;;;;;;;5110583;28;20075;-60
2021/12/13 09:16:26;;;;;;;16.73;11.63;;;;;;;;;;5112118;28;20504;-60
2021/12/13 09:19:06;;;;;;;14.00;11.50;;;;;;;;;;5111628;28;20059;-60
2021/12/13 09:21:43;;;;;;;15.15;11.95;;;;;;;;;;5110626;28;20055;-61
2021/12/13 09:24:09;;;;;;;13.77;11.82;;;;;;;;;;5112047;28;20101;-61
2021/12/13 09:26:41;;;;;;;17.23;11.20;;;;;;;;;;5111798;28;20047;-59
2021/12/13 09:29:08;;;;;;;29.58;12.15;;;;;;;;;;5111390;28;20039;-60
2021/12/13 09:31:36;;;;;;;21.13;12.15;;;;;;;;;;5111758;28;20044;-62
2021/12/13 09:34:06;;;;;;;14.05;11.65;;;;;;;;;;5111279;28;20481;-62
2021/12/13 09:36:35;;;;;;;18.20;11.73;;;;;;;;;;5110517;28;20101;-63
2021/12/13 09:39:04;;;;;;;14.57;11.30;;;;;;;;;;5111612;28;20055;-61
2021/12/13 09:41:36;;;;;;;18.45;11.32;;;;;;;;;;5111618;28;20047;-62
2021/12/13 09:44:06;;;;;;;16.15;11.35;;;;;;;;;;5110459;28;20062;-61
2021/12/13 09:46:37;;;;;;;17.70;12.00;;;;;;;;;;5111503;28;20104;-61
2021/12/13 09:49:06;;;;;;;12.93;11.18;;;;;;;;;;5111894;28;20044;-63
2021/12/13 09:51:37;;;;;;;17.23;11.65;;;;;;;;;;5111271;28;20044;-62
2021/12/13 09:54:05;;;;;;;14.70;11.27;;;;;;;;;;5111819;28;20040;-64
2021/12/13 09:56:36;;;;;;;15.65;11.30;;;;;;;;;;5115158;28;20062;-62
2021/12/13 09:59:06;;;;;;;13.85;11.40;;;;;;;;;;5115423;28;20056;-60
2021/12/13 10:01:34;;;;;;;13.93;11.35;;;;;;;;;;5115861;28;20055;-61
2021/12/13 10:04:02;;;;;;;13.73;11.60;;;;;;;;;;5114811;28;20100;-61
2021/12/13 10:06:31;;;;;;;13.10;10.57;;;;;;;;;;5115944;28;20048;-60
2021/12/13 10:09:02;;;;;;;14.23;10.68;;;;;;;;;;5115507;28;20168;-61
2021/12/13 10:11:33;;;;;;;13.30;10.75;;;;;;;;;;5115018;28;20054;-60
2021/12/13 10:14:00;;;;;;;13.73;10.98;;;;;;;;;;5115323;28;20543;-60
2021/12/13 10:16:31;;;;;;;14.93;10.95;;;;;;;;;;5115458;28;20489;-60
2021/12/13 10:18:58;;;;;;;13.55;10.38;;;;;;;;;;5114614;28;20066;-60
2021/12/13 10:21:28;;;;;;;12.80;10.98;;;;;;;;;;5115579;28;20076;-60
2021/12/13 10:23:56;;;;;;;13.60;10.90;;;;;;;;;;5115202;28;20094;-60
2021/12/13 10:26:25;;;;;;;13.45;11.52;;;;;;;;;;5114628;28;20097;-60
2021/12/13 10:28:55;;;;;;;13.25;10.68;;;;;;;;;;5115272;28;20051;-61
2021/12/13 10:31:25;;;;;;;13.13;10.52;;;;;;;;;;5114619;28;20054;-60
2021/12/13 10:33:53;;;;;;;13.52;11.38;;;;;;;;;;5115086;28;20051;-60
2021/12/13 10:36:20;;;;;;;12.27;10.02;;;;;;;;;;5115144;28;20116;-61
2021/12/13 10:38:51;;;;;;;11.95;10.23;;;;;;;;;;5113969;28;20105;-61
2021/12/13 10:41:19;;;;;;;12.48;10.88;;;;;;;;;;5115254;28;20048;-61
2021/12/13 10:43:48;;;;;;;12.77;10.43;;;;;;;;;;5114688;28;20073;-60
2021/12/13 10:46:18;;;;;;;12.00;10.23;;;;;;;;;;5114405;28;20453;-60
2021/12/13 10:48:46;;;;;;;14.50;10.52;;;;;;;;;;5114678;28;20051;-60
2021/12/13 10:51:13;;;;;;;12.95;10.27;;;;;;;;;;5114840;28;20051;-61
2021/12/13 10:53:41;;;;;;;12.73;9.90;;;;;;;;;;5114427;28;20113;-61
2021/12/13 10:56:09;;;;;;;13.52;10.40;;;;;;;;;;5114845;28;20047;-61
2021/12/13 10:58:39;;;;;;;12.98;10.30;;;;;;;;;;5114871;28;20040;-61
2021/12/13 11:01:09;;;;;;;13.10;10.50;;;;;;;;;;5113637;28;20047;-60
2021/12/13 11:03:36;;;;;;;14.30;10.27;;;;;;;;;;5114798;27;20051;-61
2021/12/13 11:06:04;;;;;;;13.07;9.93;;;;;;;;;;5113906;28;20059;-61
2021/12/13 11:08:31;;;;;;;11.35;9.32;;;;;;;;;;5113894;28;20485;-61
2021/12/13 11:10:59;;;;;;;11.70;9.75;;;;;;;;;;5114222;28;20051;-60
2021/12/13 11:13:28;;;;;;;11.93;9.48;;;;;;;;;;5114233;28;20448;-60
2021/12/13 11:15:57;;;;;;;12.70;9.52;;;;;;;;;;5114063;28;20100;-60
2021/12/13 11:18:28;;;;;;;12.43;9.57;;;;;;;;;;5114316;28;20089;-60
2021/12/13 11:20:56;;;;;;;11.75;9.73;;;;;;;;;;5113396;28;20304;-61
2021/12/13 11:23:22;;;;;;;11.02;9.27;;;;;;;;;;5114237;28;20494;-61
2021/12/13 11:25:50;;;;;;;10.63;9.43;;;;;;;;;;5114123;28;20085;-60
2021/12/13 11:28:17;;;;;;;10.48;8.68;;;;;;;;;;5113501;28;20043;-60
2021/12/13 11:30:45;;;;;;;12.20;9.23;;;;;;;;;;5113667;28;20035;-60
2021/12/13 11:33:29;;;;;;;10.63;9.23;;;;;;;;;;5114344;28;20043;-60
2021/12/13 11:36:10;;;;;;;12.07;9.38;;;;;;;;;;5071381;28;20105;-61
2021/12/13 11:39:07;;;;;;;9.93;8.93;;;;;;;;;;5114088;28;20097;-61
2021/12/13 11:41:44;;;;;;;12.02;9.05;;;;;;;;;;5030819;28;20072;-60
2021/12/13 11:44:23;;;;;;;10.70;8.27;;;;;;;;;;5099482;28;20039;-64
2021/12/13 11:47:17;;;;;;;11.23;8.57;;;;;;;;;;5114055;28;20071;-63
2021/12/13 11:50:10;;;;;;;13.98;8.15;;;;;;;;;;5112922;28;20096;-63
2021/12/13 11:52:51;;;;;;;10.55;8.20;;;;;;;;;;5113819;28;20448;-63
2021/12/13 11:55:35;;;;;;;12.20;8.50;;;;;;;;;;5069269;28;20052;-61
2021/12/13 11:58:19;;;;;;;10.25;8.15;;;;;;;;;;5112760;28;20479;-61
2021/12/13 12:01:02;;;;;;;12.10;8.13;;;;;;;;;;5111966;28;20056;-61
2021/12/13 12:03:55;;;;;;;9.73;8.10;;;;;;;;;;5111207;28;20043;-60
2021/12/13 12:06:42;;;;;;;10.75;8.60;;;;;;;;;;5065037;28;20100;-61
2021/12/13 12:09:24;;;;;;;12.73;8.23;;;;;;;;;;5113694;28;20047;-61
2021/12/13 12:12:09;;;;;;;9.50;7.85;;;;;;;;;;5112553;28;20104;-61
2021/12/13 12:14:35;;;;;;;10.63;8.40;;;;;;;;;;5113612;28;20478;-61
2021/12/13 12:17:06;;;;;;;12.18;8.23;;;;;;;;;;5111223;28;20142;-61
2021/12/13 12:19:33;;;;;;;12.02;8.73;;;;;;;;;;5113356;28;20047;-61
2021/12/13 12:22:00;;;;;;;10.02;7.90;;;;;;;;;;5112804;28;20089;-61
2021/12/13 12:24:28;;;;;;;10.27;8.23;;;;;;;;;;5112629;28;20044;-61
2021/12/13 12:26:55;;;;;;;11.43;8.18;;;;;;;;;;5112464;28;20044;-61
2021/12/13 12:29:24;;;;;;;10.75;8.23;;;;;;;;;;5113165;28;20043;-60
2021/12/13 12:31:56;;;;;;;9.85;7.50;;;;;;;;;;5112004;28;20048;-61
2021/12/13 12:34:24;;;;;;;10.45;8.45;;;;;;;;;;5113055;28;20051;-61
2021/12/13 12:37:24;;;;;;;10.40;8.00;;;;;;;;;;5112571;28;20096;-61
2021/12/13 12:39:57;;;;;;;11.57;8.10;;;;;;;;;;5028868;28;20096;-63
2021/12/13 12:42:31;;;;;;;11.65;8.25;;;;;;;;;;5029833;28;20091;-60
2021/12/13 12:45:21;;;;;;;10.60;8.18;;;;;;;;;;5072658;28;20051;-62
2021/12/13 12:48:02;;;;;;;8.52;7.38;;;;;;;;;;5092030;28;20150;-62
2021/12/13 12:50:32;;;;;;;9.50;7.70;;;;;;;;;;5112670;28;20093;-61
2021/12/13 12:53:01;;;;;;;10.23;7.65;;;;;;;;;;5111725;28;20077;-60
2021/12/13 12:55:29;;;;;;;9.95;7.78;;;;;;;;;;5112405;28;20481;-61
2021/12/13 12:57:55;;;;;;;12.10;8.00;;;;;;;;;;5111409;28;20062;-61
2021/12/13 13:00:22;;;;;;;9.63;7.95;;;;;;;;;;5110800;28;20056;-61
2021/12/13 13:02:49;;;;;;;9.07;7.47;;;;;;;;;;5112222;28;20043;-60
2021/12/13 13:05:15;;;;;;;10.15;7.95;;;;;;;;;;5112323;28;20054;-61
2021/12/13 13:07:44;;;;;;;9.25;7.45;;;;;;;;;;5111126;28;20047;-61
2021/12/13 13:10:22;;;;;;;8.48;7.30;;;;;;;;;;5112208;28;20475;-61
2021/12/13 13:12:49;;;;;;;8.50;7.20;;;;;;;;;;5112083;28;20047;-62
2021/12/13 13:15:33;;;;;;;8.38;7.28;;;;;;;;;;5111518;28;20048;-62
2021/12/13 13:18:00;;;;;;;9.68;6.95;;;;;;;;;;5111680;28;20047;-60
2021/12/13 13:20:29;;;;;;;9.52;7.13;;;;;;;;;;5111522;28;20039;-60
2021/12/13 13:22:58;;;;;;;8.77;6.90;;;;;;;;;;5111703;28;20047;-60
2021/12/13 13:25:26;;;;;;;10.18;7.40;;;;;;;;;;5112120;28;20332;-61
2021/12/13 13:27:53;;;;;;;8.57;7.03;;;;;;;;;;5111036;28;20043;-61
2021/12/13 13:30:23;;;;;;;9.20;7.32;;;;;;;;;;5111574;28;20039;-61
2021/12/13 13:32:51;;;;;;;10.38;7.25;;;;;;;;;;5111683;28;20100;-61
2021/12/13 13:35:18;;;;;;;9.68;6.90;;;;;;;;;;5111157;28;20043;-60
2021/12/13 13:37:44;;;;;;;10.13;7.40;;;;;;;;;;5111366;28;20055;-60
2021/12/13 13:40:14;;;;;;;8.70;7.00;;;;;;;;;;5111772;28;20074;-60
2021/12/13 13:42:44;;;;;;;9.55;7.50;;;;;;;;;;5111170;28;20048;-60
2021/12/13 13:45:16;;;;;;;11.43;7.18;;;;;;;;;;5112049;28;20048;-60
2021/12/13 13:47:44;;;;;;;8.30;6.80;;;;;;;;;;5111458;28;20040;-60
2021/12/13 13:50:18;;;;;;;10.23;7.55;;;;;;;;;;5111261;28;20040;-60
2021/12/13 13:52:45;;;;;;;9.57;7.07;;;;;;;;;;5111358;28;20104;-60
2021/12/13 13:55:20;;;;;;;9.63;7.75;;;;;;;;;;5111943;28;20067;-60
2021/12/13 13:57:48;;;;;;;9.48;7.65;;;;;;;;;;5111122;28;20043;-60
2021/12/13 14:00:15;;;;;;;8.07;7.28;;;;;;;;;;5111529;28;20367;-60
2021/12/13 14:02:41;;;;;;;7.95;7.15;;;;;;;;;;5110832;28;20056;-60
2021/12/13 14:05:09;;;;;;;8.02;6.63;;;;;;;;;;5111485;28;20130;-60
2021/12/13 14:07:36;;;;;;;7.72;6.75;;;;;;;;;;5111821;28;20071;-60
2021/12/13 14:10:04;;;;;;;8.45;6.78;;;;;;;;;;5110538;28;20108;-60
2021/12/13 14:12:33;;;;;;;7.75;6.82;;;;;;;;;;5111582;28;20116;-60
2021/12/13 14:15:04;;;;;;;7.82;6.63;;;;;;;;;;5111221;28;20051;-60
2021/12/13 14:17:31;;;;;;;7.60;6.70;;;;;;;;;;5110588;28;20051;-60
2021/12/13 14:20:03;;;;;;;7.60;6.80;;;;;;;;;;5111267;28;20047;-60
2021/12/13 14:22:30;;;;;;;7.80;6.90;;;;;;;;;;5111563;28;20043;-60
2021/12/13 14:24:56;;;;;;;7.85;6.45;;;;;;;;;;5110335;28;20048;-60
2021/12/13 14:27:24;;;;;;;8.30;6.45;;;;;;;;;;5111411;28;20048;-60
2021/12/13 14:30:06;;;;;;;7.45;6.55;;;;;;;;;;5110981;28;20050;-60
2021/12/13 14:32:33;;;;;;;7.25;6.55;;;;;;;;;;5110713;28;20044;-60
2021/12/13 14:35:11;;;;;;;7.43;6.60;;;;;;;;;;5111122;28;20096;-60
2021/12/13 14:37:37;;;;;;;7.80;6.60;;;;;;;;;;5110269;28;20486;-60
2021/12/13 14:40:04;;;;;;;7.90;7.07;;;;;;;;;;5111168;28;20097;-60
2021/12/13 14:42:31;;;;;;;8.00;6.43;;;;;;;;;;5115049;28;20093;-60
2021/12/13 14:45:00;;;;;;;7.55;6.57;;;;;;;;;;5114011;28;20432;-60